createdAt,value
2023-03-23T16:01:09.411Z,99761.38
2023-03-23T16:06:23.435Z,99735.31
2023-03-23T16:11:31.128Z,99735.66
2023-03-23T16:16:38.854Z,99741.06
2023-03-23T16:21:42.971Z,99739.84
2023-03-23T16:26:46.781Z,99727.94
2023-03-23T16:31:51.549Z,99726.00
2023-03-23T16:36:54.894Z,99724.38
2023-03-23T16:41:58.340Z,99729.97
2023-03-23T16:47:03.103Z,99742.44
2023-03-23T16:52:06.490Z,99726.69
2023-03-23T16:57:09.948Z,99721.63
2023-03-23T17:02:14.785Z,99731.78
2023-03-23T17:07:18.184Z,99732.66
2023-03-23T17:12:21.658Z,99749.09
2023-03-23T17:17:26.479Z,99749.50
2023-03-23T17:22:30.273Z,99760.81
2023-03-23T17:27:33.898Z,99767.72
2023-03-23T17:32:39.945Z,99762.44
2023-03-23T17:37:44.259Z,99770.38
2023-03-23T17:42:47.667Z,99764.09
2023-03-23T17:47:52.401Z,99788.09
2023-03-23T17:52:57.017Z,99774.38
2023-03-23T17:58:00.694Z,99772.50
2023-03-23T18:03:05.490Z,99775.00
2023-03-23T18:08:09.468Z,99771.97
2023-03-23T18:13:12.864Z,99780.22
2023-03-23T18:18:17.621Z,99791.81
2023-03-23T18:23:21.071Z,99813.34
2023-03-23T18:28:25.367Z,99804.31
2023-03-23T18:33:30.347Z,99792.78
2023-03-23T18:38:34.386Z,99806.97
2023-03-23T18:43:38.206Z,99809.53
2023-03-23T18:48:42.974Z,99805.91
2023-03-23T18:53:46.411Z,99805.75
2023-03-23T18:58:52.574Z,99798.09
2023-03-23T19:03:57.351Z,99799.91
2023-03-23T19:09:00.753Z,99794.25
2023-03-23T19:14:04.962Z,99788.41
2023-03-23T19:19:10.124Z,99776.72
2023-03-23T19:24:13.597Z,99761.69
2023-03-23T19:29:26.811Z,99766.47
2023-03-23T19:34:35.425Z,99749.53
2023-03-23T19:39:40.461Z,99738.66
2023-03-23T19:44:45.260Z,99731.97
2023-03-23T19:49:50.863Z,99728.94
2023-03-23T19:54:55.162Z,99731.00
2023-03-23T19:59:59.294Z,99730.44
2023-03-23T20:05:04.481Z,99734.16
2023-03-23T20:10:09.068Z,99719.84
2023-03-23T20:15:12.431Z,99722.38
2023-03-23T20:20:17.406Z,99711.59
2023-03-23T20:25:21.048Z,99709.25
2023-03-23T20:30:24.453Z,99710.19
2023-03-23T20:35:30.578Z,99716.47
2023-03-23T20:40:34.012Z,99727.66
2023-03-23T20:45:37.607Z,99722.66
2023-03-23T20:50:42.424Z,99720.81
2023-03-23T20:55:46.717Z,99714.16
2023-03-23T21:00:56.924Z,99706.47
2023-03-23T21:06:03.145Z,99698.41
2023-03-23T21:11:08.532Z,99700.47
2023-03-23T21:16:12.052Z,99700.09
2023-03-23T21:21:18.366Z,99687.50
2023-03-23T21:26:26.230Z,99673.78
2023-03-23T21:31:32.982Z,99679.13
2023-03-23T21:36:38.042Z,99672.09
2023-03-23T21:41:41.807Z,99661.31
2023-03-23T21:46:46.368Z,99640.59
2023-03-23T21:51:51.198Z,99637.09
2023-03-23T21:56:54.721Z,99632.72
2023-03-23T22:01:58.977Z,99634.25
2023-03-23T22:07:03.992Z,99633.59
2023-03-23T22:12:09.244Z,99622.13
2023-03-23T22:17:13.296Z,99615.16
2023-03-23T22:22:19.326Z,99608.94
2023-03-23T22:27:22.986Z,99603.69
2023-03-23T22:32:27.159Z,99599.91
2023-03-23T22:37:32.382Z,99589.41
2023-03-23T22:42:35.978Z,99586.53
2023-03-23T22:47:39.864Z,99566.13
2023-03-23T22:52:45.395Z,99561.19
2023-03-23T23:09:44.447Z,99537.41
2023-03-23T23:14:55.148Z,99521.66
2023-03-23T23:19:59.661Z,99520.06
2023-03-23T23:25:05.650Z,99516.59
2023-03-23T23:30:10.287Z,99494.59
2023-03-23T23:35:14.226Z,99492.88
2023-03-23T23:40:20.020Z,99498.03
2023-03-23T23:45:23.703Z,99491.00
2023-03-23T23:50:27.750Z,99484.72
2023-03-23T23:55:33.216Z,99474.19
